sensor_id;sensor_type;location;lat;lon;timestamp;P1;durP1;ratioP1;P2;durP2;ratioP2
75005;SDS011;63553;51.814;4.600;2023-11-21T00:01:43;25.80;;;13.13;;
75005;SDS011;63553;51.814;4.600;2023-11-21T00:04:09;23.08;;;12.82;;
75005;SDS011;63553;51.814;4.600;2023-11-21T00:06:34;24.25;;;11.00;;
75005;SDS011;63553;51.814;4.600;2023-11-21T00:08:59;45.78;;;23.65;;
75005;SDS011;63553;51.814;4.600;2023-11-21T00:11:25;26.92;;;14.57;;
75005;SDS011;63553;51.814;4.600;2023-11-21T00:13:50;18.60;;;10.57;;
75005;SDS011;63553;51.814;4.600;2023-11-21T00:16:16;36.33;;;17.85;;
75005;SDS011;63553;51.814;4.600;2023-11-21T00:18:41;33.80;;;15.40;;
75005;SDS011;63553;51.814;4.600;2023-11-21T00:21:07;40.35;;;22.13;;
75005;SDS011;63553;51.814;4.600;2023-11-21T00:23:34;27.70;;;13.45;;
75005;SDS011;63553;51.814;4.600;2023-11-21T00:25:59;35.05;;;16.00;;
75005;SDS011;63553;51.814;4.600;2023-11-21T00:28:24;35.13;;;18.98;;
75005;SDS011;63553;51.814;4.600;2023-11-21T00:30:51;29.30;;;14.15;;
75005;SDS011;63553;51.814;4.600;2023-11-21T00:33:16;25.23;;;11.60;;
75005;SDS011;63553;51.814;4.600;2023-11-21T00:35:41;18.73;;;10.33;;
75005;SDS011;63553;51.814;4.600;2023-11-21T00:38:06;20.73;;;12.17;;
75005;SDS011;63553;51.814;4.600;2023-11-21T00:40:33;29.85;;;15.60;;
75005;SDS011;63553;51.814;4.600;2023-11-21T00:42:58;19.63;;;9.10;;
75005;SDS011;63553;51.814;4.600;2023-11-21T00:45:24;29.98;;;15.15;;
75005;SDS011;63553;51.814;4.600;2023-11-21T00:47:49;31.38;;;14.40;;
75005;SDS011;63553;51.814;4.600;2023-11-21T00:50:15;25.37;;;11.57;;
75005;SDS011;63553;51.814;4.600;2023-11-21T00:52:40;21.88;;;10.90;;
75005;SDS011;63553;51.814;4.600;2023-11-21T00:55:06;31.42;;;15.43;;
75005;SDS011;63553;51.814;4.600;2023-11-21T00:57:32;15.95;;;8.82;;
75005;SDS011;63553;51.814;4.600;2023-11-21T00:59:58;20.40;;;11.65;;
75005;SDS011;63553;51.814;4.600;2023-11-21T01:02:23;28.13;;;13.25;;
75005;SDS011;63553;51.814;4.600;2023-11-21T01:04:51;41.55;;;21.10;;
75005;SDS011;63553;51.814;4.600;2023-11-21T01:07:17;34.03;;;15.10;;
75005;SDS011;63553;51.814;4.600;2023-11-21T01:09:45;30.65;;;14.88;;
75005;SDS011;63553;51.814;4.600;2023-11-21T01:12:11;43.78;;;21.13;;
75005;SDS011;63553;51.814;4.600;2023-11-21T01:14:36;26.05;;;13.90;;
75005;SDS011;63553;51.814;4.600;2023-11-21T01:17:01;25.13;;;10.23;;
75005;SDS011;63553;51.814;4.600;2023-11-21T01:19:29;40.92;;;19.75;;
75005;SDS011;63553;51.814;4.600;2023-11-21T01:21:54;19.10;;;10.20;;
75005;SDS011;63553;51.814;4.600;2023-11-21T01:24:19;29.37;;;15.50;;
75005;SDS011;63553;51.814;4.600;2023-11-21T01:26:44;32.87;;;15.17;;
75005;SDS011;63553;51.814;4.600;2023-11-21T01:29:11;21.27;;;9.85;;
75005;SDS011;63553;51.814;4.600;2023-11-21T01:31:37;15.38;;;8.23;;
75005;SDS011;63553;51.814;4.600;2023-11-21T01:34:02;21.90;;;11.13;;
75005;SDS011;63553;51.814;4.600;2023-11-21T01:36:31;23.40;;;12.95;;
75005;SDS011;63553;51.814;4.600;2023-11-21T01:38:57;19.33;;;10.05;;
75005;SDS011;63553;51.814;4.600;2023-11-21T01:41:24;22.35;;;12.73;;
75005;SDS011;63553;51.814;4.600;2023-11-21T01:43:52;23.65;;;11.55;;
75005;SDS011;63553;51.814;4.600;2023-11-21T01:46:18;42.45;;;19.38;;
75005;SDS011;63553;51.814;4.600;2023-11-21T01:48:45;23.13;;;11.80;;
75005;SDS011;63553;51.814;4.600;2023-11-21T01:51:11;16.77;;;8.38;;
75005;SDS011;63553;51.814;4.600;2023-11-21T01:53:36;26.00;;;14.90;;
75005;SDS011;63553;51.814;4.600;2023-11-21T01:56:02;17.75;;;9.57;;
75005;SDS011;63553;51.814;4.600;2023-11-21T01:58:28;16.60;;;9.15;;
75005;SDS011;63553;51.814;4.600;2023-11-21T02:00:54;19.35;;;10.82;;
75005;SDS011;63553;51.814;4.600;2023-11-21T02:03:20;37.17;;;20.00;;
75005;SDS011;63553;51.814;4.600;2023-11-21T02:05:45;33.85;;;18.13;;
75005;SDS011;63553;51.814;4.600;2023-11-21T02:08:11;23.13;;;11.10;;
75005;SDS011;63553;51.814;4.600;2023-11-21T02:10:36;22.92;;;10.40;;
75005;SDS011;63553;51.814;4.600;2023-11-21T02:13:02;19.63;;;9.15;;
75005;SDS011;63553;51.814;4.600;2023-11-21T02:15:29;46.70;;;21.30;;
75005;SDS011;63553;51.814;4.600;2023-11-21T02:17:54;18.58;;;11.00;;
75005;SDS011;63553;51.814;4.600;2023-11-21T02:20:21;18.50;;;8.43;;
75005;SDS011;63553;51.814;4.600;2023-11-21T02:22:50;18.17;;;10.05;;
75005;SDS011;63553;51.814;4.600;2023-11-21T02:25:22;28.63;;;12.77;;
75005;SDS011;63553;51.814;4.600;2023-11-21T02:27:59;24.58;;;12.40;;
75005;SDS011;63553;51.814;4.600;2023-11-21T02:30:26;23.58;;;11.27;;
75005;SDS011;63553;51.814;4.600;2023-11-21T02:32:56;32.83;;;15.07;;
75005;SDS011;63553;51.814;4.600;2023-11-21T02:35:22;31.17;;;16.73;;
75005;SDS011;63553;51.814;4.600;2023-11-21T02:37:48;19.30;;;10.48;;
75005;SDS011;63553;51.814;4.600;2023-11-21T02:40:14;23.98;;;11.70;;
75005;SDS011;63553;51.814;4.600;2023-11-21T02:45:12;30.40;;;14.35;;
75005;SDS011;63553;51.814;4.600;2023-11-21T02:47:41;24.08;;;12.48;;
75005;SDS011;63553;51.814;4.600;2023-11-21T02:50:07;32.78;;;18.15;;
75005;SDS011;63553;51.814;4.600;2023-11-21T02:52:34;19.48;;;10.57;;
75005;SDS011;63553;51.814;4.600;2023-11-21T02:55:00;32.15;;;15.82;;
75005;SDS011;63553;51.814;4.600;2023-11-21T02:57:26;17.60;;;9.65;;
75005;SDS011;63553;51.814;4.600;2023-11-21T02:59:51;21.40;;;11.30;;
75005;SDS011;63553;51.814;4.600;2023-11-21T03:02:17;27.43;;;13.53;;
75005;SDS011;63553;51.814;4.600;2023-11-21T03:04:42;19.10;;;10.20;;
75005;SDS011;63553;51.814;4.600;2023-11-21T03:07:08;22.80;;;12.13;;
75005;SDS011;63553;51.814;4.600;2023-11-21T03:09:34;20.25;;;10.35;;
75005;SDS011;63553;51.814;4.600;2023-11-21T03:12:00;31.90;;;16.08;;
75005;SDS011;63553;51.814;4.600;2023-11-21T03:14:25;15.93;;;8.33;;
75005;SDS011;63553;51.814;4.600;2023-11-21T03:16:50;36.50;;;15.93;;
75005;SDS011;63553;51.814;4.600;2023-11-21T03:19:15;22.27;;;10.13;;
75005;SDS011;63553;51.814;4.600;2023-11-21T03:21:41;29.52;;;14.25;;
75005;SDS011;63553;51.814;4.600;2023-11-21T03:24:06;19.97;;;8.10;;
75005;SDS011;63553;51.814;4.600;2023-11-21T03:26:32;14.93;;;8.65;;
75005;SDS011;63553;51.814;4.600;2023-11-21T03:28:57;12.93;;;6.00;;
75005;SDS011;63553;51.814;4.600;2023-11-21T03:31:23;13.03;;;6.97;;
75005;SDS011;63553;51.814;4.600;2023-11-21T03:33:48;23.50;;;12.17;;
75005;SDS011;63553;51.814;4.600;2023-11-21T03:36:13;16.97;;;9.57;;
75005;SDS011;63553;51.814;4.600;2023-11-21T03:38:40;26.33;;;12.30;;
75005;SDS011;63553;51.814;4.600;2023-11-21T03:41:06;23.15;;;12.48;;
75005;SDS011;63553;51.814;4.600;2023-11-21T03:43:31;20.60;;;10.80;;
75005;SDS011;63553;51.814;4.600;2023-11-21T03:45:57;33.50;;;16.50;;
75005;SDS011;63553;51.814;4.600;2023-11-21T03:48:22;19.80;;;10.27;;
75005;SDS011;63553;51.814;4.600;2023-11-21T03:50:48;26.00;;;13.80;;
75005;SDS011;63553;51.814;4.600;2023-11-21T03:53:13;20.92;;;12.15;;
75005;SDS011;63553;51.814;4.600;2023-11-21T03:55:39;31.48;;;15.18;;
75005;SDS011;63553;51.814;4.600;2023-11-21T03:58:04;17.90;;;9.23;;
75005;SDS011;63553;51.814;4.600;2023-11-21T04:00:29;23.63;;;11.00;;
75005;SDS011;63553;51.814;4.600;2023-11-21T04:02:55;28.33;;;13.50;;
75005;SDS011;63553;51.814;4.600;2023-11-21T04:05:20;24.15;;;13.38;;
75005;SDS011;63553;51.814;4.600;2023-11-21T04:07:49;20.45;;;11.48;;
75005;SDS011;63553;51.814;4.600;2023-11-21T04:10:16;22.88;;;11.38;;
75005;SDS011;63553;51.814;4.600;2023-11-21T04:12:41;20.95;;;10.93;;
75005;SDS011;63553;51.814;4.600;2023-11-21T04:15:07;7.47;;;3.97;;
75005;SDS011;63553;51.814;4.600;2023-11-21T04:17:35;29.88;;;14.27;;
75005;SDS011;63553;51.814;4.600;2023-11-21T04:20:02;14.70;;;9.00;;
75005;SDS011;63553;51.814;4.600;2023-11-21T04:22:33;20.10;;;10.88;;
75005;SDS011;63553;51.814;4.600;2023-11-21T04:24:58;14.13;;;7.78;;
75005;SDS011;63553;51.814;4.600;2023-11-21T04:27:23;40.50;;;19.43;;
75005;SDS011;63553;51.814;4.600;2023-11-21T04:29:49;19.83;;;10.97;;
75005;SDS011;63553;51.814;4.600;2023-11-21T04:32:14;28.30;;;14.87;;
75005;SDS011;63553;51.814;4.600;2023-11-21T04:34:39;16.93;;;9.43;;
75005;SDS011;63553;51.814;4.600;2023-11-21T04:37:05;17.07;;;8.87;;
75005;SDS011;63553;51.814;4.600;2023-11-21T04:39:31;16.58;;;10.73;;
75005;SDS011;63553;51.814;4.600;2023-11-21T04:41:56;12.52;;;6.90;;
75005;SDS011;63553;51.814;4.600;2023-11-21T04:44:22;27.50;;;13.63;;
75005;SDS011;63553;51.814;4.600;2023-11-21T04:46:47;45.30;;;21.27;;
75005;SDS011;63553;51.814;4.600;2023-11-21T04:49:12;27.67;;;13.80;;
75005;SDS011;63553;51.814;4.600;2023-11-21T04:51:38;16.70;;;10.45;;
75005;SDS011;63553;51.814;4.600;2023-11-21T04:54:04;16.43;;;9.53;;
75005;SDS011;63553;51.814;4.600;2023-11-21T04:56:30;29.27;;;15.98;;
75005;SDS011;63553;51.814;4.600;2023-11-21T04:58:56;16.50;;;9.02;;
75005;SDS011;63553;51.814;4.600;2023-11-21T05:01:21;17.33;;;10.13;;
75005;SDS011;63553;51.814;4.600;2023-11-21T05:03:47;33.38;;;16.60;;
75005;SDS011;63553;51.814;4.600;2023-11-21T05:06:13;28.65;;;13.57;;
75005;SDS011;63553;51.814;4.600;2023-11-21T05:08:39;41.15;;;19.88;;
75005;SDS011;63553;51.814;4.600;2023-11-21T05:11:04;21.45;;;10.35;;
75005;SDS011;63553;51.814;4.600;2023-11-21T05:13:32;76.25;;;34.45;;
75005;SDS011;63553;51.814;4.600;2023-11-21T05:15:59;32.30;;;14.43;;
75005;SDS011;63553;51.814;4.600;2023-11-21T05:18:24;22.30;;;12.27;;
75005;SDS011;63553;51.814;4.600;2023-11-21T05:20:54;50.17;;;16.27;;
75005;SDS011;63553;51.814;4.600;2023-11-21T05:23:20;135.82;;;40.08;;
75005;SDS011;63553;51.814;4.600;2023-11-21T05:25:45;222.53;;;97.17;;
75005;SDS011;63553;51.814;4.600;2023-11-21T05:28:11;122.70;;;46.97;;
75005;SDS011;63553;51.814;4.600;2023-11-21T05:30:36;34.45;;;15.18;;
75005;SDS011;63553;51.814;4.600;2023-11-21T05:33:04;154.00;;;66.28;;
75005;SDS011;63553;51.814;4.600;2023-11-21T05:35:29;128.95;;;61.08;;
75005;SDS011;63553;51.814;4.600;2023-11-21T05:37:54;119.30;;;53.27;;
75005;SDS011;63553;51.814;4.600;2023-11-21T05:40:20;47.30;;;23.03;;
75005;SDS011;63553;51.814;4.600;2023-11-21T05:42:47;53.17;;;26.33;;
75005;SDS011;63553;51.814;4.600;2023-11-21T05:45:13;98.22;;;46.78;;
75005;SDS011;63553;51.814;4.600;2023-11-21T05:47:39;7.22;;;5.25;;
75005;SDS011;63553;51.814;4.600;2023-11-21T05:50:07;10.23;;;4.13;;
75005;SDS011;63553;51.814;4.600;2023-11-21T05:52:37;20.17;;;11.02;;
75005;SDS011;63553;51.814;4.600;2023-11-21T05:55:05;13.68;;;7.05;;
75005;SDS011;63553;51.814;4.600;2023-11-21T05:57:32;9.18;;;4.43;;
75005;SDS011;63553;51.814;4.600;2023-11-21T05:59:58;15.68;;;8.65;;
75005;SDS011;63553;51.814;4.600;2023-11-21T06:02:24;11.32;;;5.18;;
75005;SDS011;63553;51.814;4.600;2023-11-21T06:04:50;12.98;;;7.38;;
75005;SDS011;63553;51.814;4.600;2023-11-21T06:07:16;44.38;;;22.42;;
75005;SDS011;63553;51.814;4.600;2023-11-21T06:09:41;7.93;;;3.72;;
75005;SDS011;63553;51.814;4.600;2023-11-21T06:12:07;19.23;;;8.57;;
75005;SDS011;63553;51.814;4.600;2023-11-21T06:14:32;13.30;;;8.27;;
75005;SDS011;63553;51.814;4.600;2023-11-21T06:17:00;17.50;;;10.38;;
75005;SDS011;63553;51.814;4.600;2023-11-21T06:19:25;15.85;;;8.88;;
75005;SDS011;63553;51.814;4.600;2023-11-21T06:21:51;10.20;;;5.30;;
75005;SDS011;63553;51.814;4.600;2023-11-21T06:24:16;81.53;;;38.07;;
75005;SDS011;63553;51.814;4.600;2023-11-21T06:26:42;19.67;;;10.50;;
75005;SDS011;63553;51.814;4.600;2023-11-21T06:29:08;42.22;;;21.75;;
75005;SDS011;63553;51.814;4.600;2023-11-21T06:31:33;6.73;;;4.27;;
75005;SDS011;63553;51.814;4.600;2023-11-21T06:33:58;6.97;;;3.53;;
75005;SDS011;63553;51.814;4.600;2023-11-21T06:36:24;8.50;;;4.78;;
75005;SDS011;63553;51.814;4.600;2023-11-21T06:38:51;10.45;;;5.65;;
75005;SDS011;63553;51.814;4.600;2023-11-21T06:41:17;7.32;;;4.25;;
75005;SDS011;63553;51.814;4.600;2023-11-21T06:43:42;8.77;;;4.60;;
75005;SDS011;63553;51.814;4.600;2023-11-21T06:46:11;13.82;;;7.07;;
75005;SDS011;63553;51.814;4.600;2023-11-21T06:48:37;36.55;;;17.38;;
75005;SDS011;63553;51.814;4.600;2023-11-21T06:51:03;34.15;;;16.52;;
75005;SDS011;63553;51.814;4.600;2023-11-21T06:53:29;11.48;;;7.18;;
75005;SDS011;63553;51.814;4.600;2023-11-21T06:55:54;15.03;;;7.90;;
75005;SDS011;63553;51.814;4.600;2023-11-21T06:58:20;17.08;;;9.63;;
75005;SDS011;63553;51.814;4.600;2023-11-21T07:00:45;13.30;;;7.68;;
75005;SDS011;63553;51.814;4.600;2023-11-21T07:03:13;9.90;;;5.53;;
75005;SDS011;63553;51.814;4.600;2023-11-21T07:05:38;16.73;;;9.07;;
75005;SDS011;63553;51.814;4.600;2023-11-21T07:08:04;11.38;;;7.20;;
75005;SDS011;63553;51.814;4.600;2023-11-21T07:10:29;14.50;;;6.78;;
75005;SDS011;63553;51.814;4.600;2023-11-21T07:12:55;57.33;;;27.97;;
75005;SDS011;63553;51.814;4.600;2023-11-21T07:15:22;17.27;;;8.77;;
75005;SDS011;63553;51.814;4.600;2023-11-21T07:17:47;11.25;;;7.18;;
75005;SDS011;63553;51.814;4.600;2023-11-21T07:20:13;9.57;;;5.88;;
75005;SDS011;63553;51.814;4.600;2023-11-21T07:22:42;7.05;;;4.90;;
75005;SDS011;63553;51.814;4.600;2023-11-21T07:25:07;32.38;;;16.77;;
75005;SDS011;63553;51.814;4.600;2023-11-21T07:27:34;35.25;;;15.63;;
75005;SDS011;63553;51.814;4.600;2023-11-21T07:30:01;44.78;;;10.77;;
75005;SDS011;63553;51.814;4.600;2023-11-21T07:32:29;22.33;;;9.15;;
75005;SDS011;63553;51.814;4.600;2023-11-21T07:34:55;31.67;;;12.98;;
75005;SDS011;63553;51.814;4.600;2023-11-21T07:37:22;14.52;;;8.07;;
75005;SDS011;63553;51.814;4.600;2023-11-21T07:39:47;5.78;;;3.60;;
75005;SDS011;63553;51.814;4.600;2023-11-21T07:42:13;17.07;;;10.53;;
75005;SDS011;63553;51.814;4.600;2023-11-21T07:44:38;13.35;;;7.80;;
75005;SDS011;63553;51.814;4.600;2023-11-21T07:47:04;11.90;;;7.88;;
75005;SDS011;63553;51.814;4.600;2023-11-21T07:49:29;27.23;;;11.75;;
75005;SDS011;63553;51.814;4.600;2023-11-21T07:51:55;21.73;;;11.77;;
75005;SDS011;63553;51.814;4.600;2023-11-21T07:54:20;21.83;;;13.17;;
75005;SDS011;63553;51.814;4.600;2023-11-21T07:56:46;15.30;;;8.77;;
75005;SDS011;63553;51.814;4.600;2023-11-21T07:59:12;37.03;;;18.27;;
75005;SDS011;63553;51.814;4.600;2023-11-21T08:01:39;9.40;;;4.65;;
75005;SDS011;63553;51.814;4.600;2023-11-21T08:04:05;29.27;;;12.73;;
75005;SDS011;63553;51.814;4.600;2023-11-21T08:06:31;35.15;;;16.85;;
75005;SDS011;63553;51.814;4.600;2023-11-21T08:08:58;26.00;;;13.02;;
75005;SDS011;63553;51.814;4.600;2023-11-21T08:11:23;29.60;;;14.23;;
75005;SDS011;63553;51.814;4.600;2023-11-21T08:13:49;23.15;;;12.80;;
75005;SDS011;63553;51.814;4.600;2023-11-21T08:16:14;16.13;;;10.63;;
75005;SDS011;63553;51.814;4.600;2023-11-21T08:18:40;21.08;;;10.98;;
75005;SDS011;63553;51.814;4.600;2023-11-21T08:21:06;12.82;;;7.72;;
75005;SDS011;63553;51.814;4.600;2023-11-21T08:23:32;4.78;;;2.85;;
75005;SDS011;63553;51.814;4.600;2023-11-21T08:25:59;16.52;;;9.77;;
75005;SDS011;63553;51.814;4.600;2023-11-21T08:28:24;15.90;;;9.23;;
75005;SDS011;63553;51.814;4.600;2023-11-21T08:30:51;14.98;;;9.45;;
75005;SDS011;63553;51.814;4.600;2023-11-21T08:33:17;17.23;;;9.82;;
75005;SDS011;63553;51.814;4.600;2023-11-21T08:35:42;6.70;;;3.80;;
75005;SDS011;63553;51.814;4.600;2023-11-21T08:38:09;5.35;;;2.60;;
75005;SDS011;63553;51.814;4.600;2023-11-21T08:40:35;17.65;;;9.15;;
75005;SDS011;63553;51.814;4.600;2023-11-21T08:43:00;16.37;;;8.47;;
75005;SDS011;63553;51.814;4.600;2023-11-21T08:45:28;14.18;;;7.57;;
75005;SDS011;63553;51.814;4.600;2023-11-21T08:47:53;13.33;;;8.50;;
75005;SDS011;63553;51.814;4.600;2023-11-21T08:50:18;13.45;;;7.78;;
75005;SDS011;63553;51.814;4.600;2023-11-21T08:52:44;3.45;;;2.53;;
75005;SDS011;63553;51.814;4.600;2023-11-21T08:55:13;11.65;;;6.95;;
75005;SDS011;63553;51.814;4.600;2023-11-21T08:57:39;12.73;;;7.15;;
75005;SDS011;63553;51.814;4.600;2023-11-21T09:00:06;10.65;;;6.28;;
75005;SDS011;63553;51.814;4.600;2023-11-21T09:02:36;10.48;;;6.68;;
75005;SDS011;63553;51.814;4.600;2023-11-21T09:05:07;9.40;;;6.10;;
75005;SDS011;63553;51.814;4.600;2023-11-21T09:07:33;11.65;;;5.97;;
75005;SDS011;63553;51.814;4.600;2023-11-21T09:09:59;7.72;;;5.57;;
75005;SDS011;63553;51.814;4.600;2023-11-21T09:12:24;8.00;;;4.80;;
75005;SDS011;63553;51.814;4.600;2023-11-21T09:14:50;13.57;;;5.80;;
75005;SDS011;63553;51.814;4.600;2023-11-21T09:17:15;7.05;;;4.45;;
75005;SDS011;63553;51.814;4.600;2023-11-21T09:19:41;6.60;;;4.45;;
75005;SDS011;63553;51.814;4.600;2023-11-21T09:22:08;8.95;;;4.78;;
75005;SDS011;63553;51.814;4.600;2023-11-21T09:24:34;5.15;;;2.60;;
75005;SDS011;63553;51.814;4.600;2023-11-21T09:26:59;7.35;;;4.63;;
75005;SDS011;63553;51.814;4.600;2023-11-21T09:29:28;5.82;;;3.70;;
75005;SDS011;63553;51.814;4.600;2023-11-21T09:31:54;4.13;;;2.55;;
75005;SDS011;63553;51.814;4.600;2023-11-21T09:34:20;6.38;;;4.47;;
75005;SDS011;63553;51.814;4.600;2023-11-21T09:36:47;4.88;;;2.67;;
75005;SDS011;63553;51.814;4.600;2023-11-21T09:40:46;3.65;;;2.67;;
75005;SDS011;63553;51.814;4.600;2023-11-21T09:43:18;8.73;;;4.72;;
75005;SDS011;63553;51.814;4.600;2023-11-21T09:45:45;6.97;;;4.97;;
75005;SDS011;63553;51.814;4.600;2023-11-21T09:48:15;5.05;;;4.03;;
75005;SDS011;63553;51.814;4.600;2023-11-21T09:50:42;5.22;;;4.35;;
75005;SDS011;63553;51.814;4.600;2023-11-21T09:53:18;6.50;;;4.65;;
75005;SDS011;63553;51.814;4.600;2023-11-21T09:55:52;4.38;;;2.83;;
75005;SDS011;63553;51.814;4.600;2023-11-21T09:58:19;3.85;;;2.95;;
75005;SDS011;63553;51.814;4.600;2023-11-21T10:00:47;5.82;;;4.05;;
75005;SDS011;63553;51.814;4.600;2023-11-21T10:03:14;6.10;;;3.15;;
75005;SDS011;63553;51.814;4.600;2023-11-21T10:05:41;3.88;;;2.90;;
75005;SDS011;63553;51.814;4.600;2023-11-21T10:08:08;12.98;;;5.82;;
75005;SDS011;63553;51.814;4.600;2023-11-21T10:10:35;6.13;;;3.85;;
75005;SDS011;63553;51.814;4.600;2023-11-21T10:13:03;6.47;;;3.80;;
75005;SDS011;63553;51.814;4.600;2023-11-21T10:15:35;4.60;;;3.15;;
75005;SDS011;63553;51.814;4.600;2023-11-21T10:18:04;6.47;;;4.00;;
75005;SDS011;63553;51.814;4.600;2023-11-21T10:20:32;3.65;;;2.67;;
75005;SDS011;63553;51.814;4.600;2023-11-21T10:23:03;2.92;;;2.22;;
75005;SDS011;63553;51.814;4.600;2023-11-21T10:25:32;5.03;;;3.28;;
75005;SDS011;63553;51.814;4.600;2023-11-21T10:27:58;3.85;;;2.63;;
75005;SDS011;63553;51.814;4.600;2023-11-21T10:30:34;3.30;;;3.00;;
75005;SDS011;63553;51.814;4.600;2023-11-21T10:33:02;2.92;;;1.92;;
75005;SDS011;63553;51.814;4.600;2023-11-21T10:35:46;1.70;;;1.60;;
75005;SDS011;63553;51.814;4.600;2023-11-21T10:38:16;2.17;;;1.70;;
75005;SDS011;63553;51.814;4.600;2023-11-21T10:40:42;1.73;;;1.60;;
75005;SDS011;63553;51.814;4.600;2023-11-21T10:43:09;1.80;;;1.52;;
75005;SDS011;63553;51.814;4.600;2023-11-21T10:45:36;2.70;;;2.50;;
75005;SDS011;63553;51.814;4.600;2023-11-21T10:48:12;2.70;;;1.90;;
75005;SDS011;63553;51.814;4.600;2023-11-21T10:50:42;1.80;;;1.70;;
75005;SDS011;63553;51.814;4.600;2023-11-21T10:53:11;2.42;;;1.65;;
75005;SDS011;63553;51.814;4.600;2023-11-21T10:55:37;1.70;;;1.60;;
75005;SDS011;63553;51.814;4.600;2023-11-21T10:58:03;2.42;;;1.50;;
75005;SDS011;63553;51.814;4.600;2023-11-21T11:00:31;6.40;;;2.30;;
75005;SDS011;63553;51.814;4.600;2023-11-21T11:02:58;2.42;;;2.03;;
75005;SDS011;63553;51.814;4.600;2023-11-21T11:05:25;2.90;;;2.25;;
75005;SDS011;63553;51.814;4.600;2023-11-21T11:08:00;3.17;;;2.10;;
75005;SDS011;63553;51.814;4.600;2023-11-21T11:10:29;3.17;;;1.95;;
75005;SDS011;63553;51.814;4.600;2023-11-21T11:12:55;3.55;;;2.10;;
75005;SDS011;63553;51.814;4.600;2023-11-21T11:15:25;3.15;;;2.17;;
75005;SDS011;63553;51.814;4.600;2023-11-21T11:17:51;2.63;;;1.85;;
75005;SDS011;63553;51.814;4.600;2023-11-21T11:20:22;2.72;;;2.17;;
75005;SDS011;63553;51.814;4.600;2023-11-21T11:25:35;3.50;;;2.33;;
75005;SDS011;63553;51.814;4.600;2023-11-21T11:28:11;3.38;;;2.25;;
75005;SDS011;63553;51.814;4.600;2023-11-21T11:38:58;3.10;;;2.35;;
75005;SDS011;63553;51.814;4.600;2023-11-21T11:41:27;2.95;;;2.15;;
75005;SDS011;63553;51.814;4.600;2023-11-21T11:43:57;3.63;;;2.25;;
75005;SDS011;63553;51.814;4.600;2023-11-21T11:46:42;4.32;;;2.45;;
75005;SDS011;63553;51.814;4.600;2023-11-21T11:49:11;4.40;;;2.72;;
75005;SDS011;63553;51.814;4.600;2023-11-21T11:52:30;4.70;;;2.70;;
75005;SDS011;63553;51.814;4.600;2023-11-21T11:54:54;2.80;;;2.25;;
75005;SDS011;63553;51.814;4.600;2023-11-21T11:57:23;5.22;;;2.80;;
75005;SDS011;63553;51.814;4.600;2023-11-21T12:02:37;2.20;;;1.95;;
75005;SDS011;63553;51.814;4.600;2023-11-21T12:05:11;5.45;;;3.15;;
75005;SDS011;63553;51.814;4.600;2023-11-21T12:07:45;2.25;;;2.05;;
75005;SDS011;63553;51.814;4.600;2023-11-21T12:10:15;5.35;;;2.78;;
75005;SDS011;63553;51.814;4.600;2023-11-21T12:12:46;3.58;;;2.17;;
75005;SDS011;63553;51.814;4.600;2023-11-21T12:15:32;2.50;;;2.22;;
75005;SDS011;63553;51.814;4.600;2023-11-21T12:17:59;2.55;;;2.20;;
75005;SDS011;63553;51.814;4.600;2023-11-21T12:20:24;3.25;;;2.08;;
75005;SDS011;63553;51.814;4.600;2023-11-21T12:25:17;2.80;;;2.00;;
75005;SDS011;63553;51.814;4.600;2023-11-21T12:27:48;2.30;;;1.80;;
75005;SDS011;63553;51.814;4.600;2023-11-21T12:30:15;3.22;;;2.30;;
75005;SDS011;63553;51.814;4.600;2023-11-21T12:32:48;2.28;;;2.08;;
75005;SDS011;63553;51.814;4.600;2023-11-21T12:35:15;4.53;;;2.45;;
75005;SDS011;63553;51.814;4.600;2023-11-21T12:37:44;4.10;;;2.13;;
75005;SDS011;63553;51.814;4.600;2023-11-21T12:40:11;3.30;;;2.25;;
75005;SDS011;63553;51.814;4.600;2023-11-21T12:42:40;2.88;;;2.20;;
75005;SDS011;63553;51.814;4.600;2023-11-21T12:45:07;4.78;;;2.78;;
75005;SDS011;63553;51.814;4.600;2023-11-21T12:47:36;3.85;;;2.50;;
75005;SDS011;63553;51.814;4.600;2023-11-21T12:50:02;5.10;;;2.88;;
75005;SDS011;63553;51.814;4.600;2023-11-21T12:52:30;3.95;;;2.65;;
75005;SDS011;63553;51.814;4.600;2023-11-21T12:54:56;4.38;;;2.25;;
75005;SDS011;63553;51.814;4.600;2023-11-21T12:57:25;5.82;;;2.60;;
75005;SDS011;63553;51.814;4.600;2023-11-21T12:59:56;5.22;;;2.95;;
75005;SDS011;63553;51.814;4.600;2023-11-21T13:02:22;4.15;;;2.80;;
75005;SDS011;63553;51.814;4.600;2023-11-21T13:04:52;3.28;;;2.58;;
75005;SDS011;63553;51.814;4.600;2023-11-21T13:07:19;3.97;;;2.45;;
75005;SDS011;63553;51.814;4.600;2023-11-21T13:09:45;3.55;;;2.53;;
75005;SDS011;63553;51.814;4.600;2023-11-21T13:12:10;4.15;;;2.70;;
75005;SDS011;63553;51.814;4.600;2023-11-21T13:14:37;4.00;;;2.35;;
75005;SDS011;63553;51.814;4.600;2023-11-21T13:17:05;2.97;;;2.25;;
75005;SDS011;63553;51.814;4.600;2023-11-21T13:19:30;3.97;;;2.40;;
75005;SDS011;63553;51.814;4.600;2023-11-21T13:21:56;4.00;;;2.70;;
75005;SDS011;63553;51.814;4.600;2023-11-21T13:24:21;5.73;;;2.97;;
75005;SDS011;63553;51.814;4.600;2023-11-21T13:26:46;3.22;;;2.42;;
75005;SDS011;63553;51.814;4.600;2023-11-21T13:29:12;3.22;;;2.47;;
75005;SDS011;63553;51.814;4.600;2023-11-21T13:31:38;3.90;;;2.90;;
75005;SDS011;63553;51.814;4.600;2023-11-21T13:34:04;5.57;;;3.20;;
75005;SDS011;63553;51.814;4.600;2023-11-21T13:36:30;5.40;;;3.20;;
75005;SDS011;63553;51.814;4.600;2023-11-21T13:38:58;6.53;;;3.30;;
75005;SDS011;63553;51.814;4.600;2023-11-21T13:41:24;4.88;;;2.95;;
75005;SDS011;63553;51.814;4.600;2023-11-21T13:43:55;4.95;;;2.60;;
75005;SDS011;63553;51.814;4.600;2023-11-21T13:46:40;3.72;;;2.40;;
75005;SDS011;63553;51.814;4.600;2023-11-21T13:49:06;6.18;;;2.78;;
75005;SDS011;63553;51.814;4.600;2023-11-21T13:51:34;5.72;;;2.80;;
75005;SDS011;63553;51.814;4.600;2023-11-21T13:54:09;3.20;;;2.25;;
75005;SDS011;63553;51.814;4.600;2023-11-21T13:56:35;3.85;;;2.53;;
75005;SDS011;63553;51.814;4.600;2023-11-21T13:59:02;2.85;;;2.22;;
75005;SDS011;63553;51.814;4.600;2023-11-21T14:01:45;4.55;;;2.88;;
75005;SDS011;63553;51.814;4.600;2023-11-21T14:04:21;4.78;;;2.53;;
75005;SDS011;63553;51.814;4.600;2023-11-21T14:07:06;7.00;;;2.78;;
75005;SDS011;63553;51.814;4.600;2023-11-21T14:09:58;4.25;;;2.72;;
75005;SDS011;63553;51.814;4.600;2023-11-21T14:12:23;7.53;;;3.58;;
75005;SDS011;63553;51.814;4.600;2023-11-21T14:14:49;4.70;;;3.03;;
75005;SDS011;63553;51.814;4.600;2023-11-21T14:17:14;6.07;;;3.03;;
75005;SDS011;63553;51.814;4.600;2023-11-21T14:19:40;4.43;;;3.30;;
75005;SDS011;63553;51.814;4.600;2023-11-21T14:22:08;5.75;;;3.22;;
75005;SDS011;63553;51.814;4.600;2023-11-21T14:24:34;6.15;;;3.58;;
75005;SDS011;63553;51.814;4.600;2023-11-21T14:27:00;7.70;;;4.15;;
75005;SDS011;63553;51.814;4.600;2023-11-21T14:29:25;5.60;;;3.40;;
75005;SDS011;63553;51.814;4.600;2023-11-21T14:31:52;6.72;;;3.50;;
75005;SDS011;63553;51.814;4.600;2023-11-21T14:34:21;4.40;;;3.05;;
75005;SDS011;63553;51.814;4.600;2023-11-21T14:36:47;5.45;;;3.60;;
75005;SDS011;63553;51.814;4.600;2023-11-21T14:39:14;5.28;;;3.75;;
75005;SDS011;63553;51.814;4.600;2023-11-21T14:41:49;4.97;;;3.42;;
75005;SDS011;63553;51.814;4.600;2023-11-21T14:44:14;8.32;;;4.00;;
75005;SDS011;63553;51.814;4.600;2023-11-21T14:46:40;7.88;;;4.32;;
75005;SDS011;63553;51.814;4.600;2023-11-21T14:49:10;6.32;;;4.38;;
75005;SDS011;63553;51.814;4.600;2023-11-21T14:51:46;7.65;;;4.55;;
75005;SDS011;63553;51.814;4.600;2023-11-21T14:54:28;9.02;;;5.38;;
75005;SDS011;63553;51.814;4.600;2023-11-21T14:57:11;9.70;;;5.57;;